Flight Track Log - Related Links

Times and Time Zones

All times are in EDT time to prevent confusion due to time zone crossing. See the FLG3757 flight status page for this flight to view local times or setup timezone preferences in your user account.

Time Position Orientation Groundspeed Altitude Reporting Facility
EDT Latitude Longitude Course Direction KTS MPH feet Rate Location/Type
Tue 06:15:28 AM 42.2256 -76.0228 280° West 156 180 4,000  Level Cleveland Center
Tue 06:16:15 AM 42.2333 -76.0836 280° West 165 190 5,100 2,131 Climbing New York Center
Tue 06:17:15 AM 42.2564 -76.1725 289° West 209 241 7,800 2,900 Climbing New York Center
Tue 06:18:15 AM 42.2817 -76.2586 292° West 239 275 10,900 2,300 Climbing New York Center
Tue 06:19:15 AM 42.3158 -76.3736 292° West 263 303 12,400 1,500 Climbing New York Center
Tue 06:20:15 AM 42.3461 -76.4800 291° West 291 335 13,900 1,387 Climbing New York Center
Tue 06:22:34 AM 42.4147 -76.7264 291° West 326 375 17,000 1,320 Climbing Cleveland Center
Tue 06:23:35 AM 42.4464 -76.8442 290° West 331 381 18,300 1,230 Climbing Cleveland Center
Tue 06:24:36 AM 42.4861 -76.9853 291° West 334 384 19,500 1,180 Climbing Cleveland Center
Tue 06:25:37 AM 42.5197 -77.1086 290° West 346 398 20,700 1,082 Climbing Cleveland Center
Tue 06:26:38 AM 42.5522 -77.2294 290° West 344 396 21,700 885 Climbing Cleveland Center
Tue 06:27:39 AM 42.5867 -77.3539 291° West 352 405 22,500 738 Climbing Cleveland Center
Tue 06:28:40 AM 42.6161 -77.4633 290° West 353 406 23,200 836 Climbing Cleveland Center
Tue 06:29:41 AM 42.6567 -77.6139 290° West 355 409 24,200 836 Climbing Cleveland Center
Tue 06:30:42 AM 42.6908 -77.7431 290° West 359 413 24,900 639 Climbing Cleveland Center
Tue 06:31:43 AM 42.7278 -77.8789 290° West 372 428 25,500 541 Climbing Cleveland Center
Tue 06:32:44 AM 42.7600 -78.0089 289° West 368 423 26,000 246 Climbing Cleveland Center
Tue 06:33:45 AM 42.7597 -78.1508 270° West 379 436 26,000  Level Cleveland Center
Tue 06:34:46 AM 42.7592 -78.2983 270° West 391 450 26,000  Level Cleveland Center
Tue 06:35:47 AM 42.7567 -78.4497 269° West 400 460 26,000  Level Cleveland Center
Tue 06:36:48 AM 42.7553 -78.6022 269° West 405 466 26,000  Level Cleveland Center
Tue 06:37:49 AM 42.7531 -78.7553 269° West 405 466 26,000  Level Cleveland Center
Tue 06:38:50 AM 42.7503 -78.9086 269° West 408 470 26,000  Level Cleveland Center
Tue 06:39:51 AM 42.7486 -79.0628 269° West 409 471 26,000  Level Cleveland Center
Tue 06:40:53 AM 42.7464 -79.2181 269° West 410 472 26,000  Level Cleveland Center
Tue 06:41:54 AM 42.7425 -79.3742 268° West 414 476 26,000  Level Cleveland Center
Tue 06:42:55 AM 42.7392 -79.5594 269° West 411 473 26,000  Level Cleveland Center
Tue 06:43:56 AM 42.7353 -79.7156 268° West 413 475 26,000  Level Cleveland Center
Tue 06:44:57 AM 42.7319 -79.8714 268° West 414 476 26,000  Level Cleveland Center
Tue 06:45:58 AM 42.7256 -80.0325 267° West 412 474 26,000  Level Cleveland Center
Tue 06:47:00 AM 42.7222 -80.1875 268° West 405 466 26,000  Level Cleveland Center
Tue 06:48:01 AM 42.7192 -80.3389 268° West 398 458 26,000  Level Cleveland Center
Tue 06:49:02 AM 42.7142 -80.4889 267° West 394 453 26,000  Level Cleveland Center
Tue 06:50:03 AM 42.7100 -80.6383 268° West 393 452 26,000 -439 Level Cleveland Center
Tue 06:51:05 AM 42.7061 -80.7958 268° West 411 473 25,100 -976 Descending Cleveland Center
Tue 06:52:06 AM 42.6983 -80.9481 266° West 404 465 24,000 -537 Descending Cleveland Center
Tue 06:53:08 AM 42.6806 -81.0997 261° West 404 465 24,000 -195 Level Cleveland Center
Tue 06:54:09 AM 42.6633 -81.2489 261° West 398 458 23,600 -836 Descending Cleveland Center
Tue 06:55:10 AM 42.6464 -81.3864 261° West 372 428 22,300 -1,317 Descending Cleveland Center
Tue 06:56:12 AM 42.6303 -81.5269 261° West 373 429 20,900 -1,366 Descending Cleveland Center
Tue 06:57:13 AM 42.6100 -81.6906 260° West 374 430 19,500 -1,180 Descending Cleveland Center
Tue 06:58:14 AM 42.5956 -81.8214 262° West 369 425 18,500 -1,024 Descending Cleveland Center
Tue 06:59:16 AM 42.5783 -81.9550 260° West 362 417 17,400 -1,268 Descending Cleveland Center
Tue 07:00:17 AM 42.5625 -82.0861 261° West 356 410 15,900 -1,485 Descending Cleveland Center
Tue 07:00:57 AM 42.5517 -82.1842 262° West 352 405 14,900 -1,355 Descending Cleveland Center
Tue 07:01:19 AM 42.5461 -82.2164 257° West 352 405 14,500 -1,519 Descending Cleveland Center
Tue 07:02:16 AM 42.5297 -82.3542 261° West 341 392 12,900 -1,475 Descending Cleveland Center
Tue 07:02:20 AM 42.5303 -82.3422 86° East 345 397 13,000 -885 Climbing Cleveland Center
Tue 07:03:17 AM 42.5147 -82.4767 261° West 336 387 12,000 -984 Descending Cleveland Center
Tue 07:03:21 AM 42.5147 -82.4678 90° East 340 391 12,000  Level Cleveland Center
Tue 07:04:23 AM 42.4900 -82.5900 255° West 341 392 12,000 -757 Level Cleveland Center
Tue 07:05:12 AM 42.4531 -82.7006 246° West 307 353 10,600 -1,672 Descending Cleveland Center
Tue 07:05:24 AM 42.4436 -82.7194 236° Southwest 324 373 10,300 -1,672 Descending Cleveland Center
Tue 07:06:13 AM 42.4183 -82.8006 247° West 277 319 8,900 -1,645 Descending Cleveland Center
Tue 07:06:26 AM 42.4153 -82.8125 251° West 284 327 8,600 -1,612 Descending Cleveland Center
Tue 07:07:20 AM 42.4172 -82.9050 272° West 249 287 7,100 -1,475 Descending Cleveland Center
Tue 07:07:27 AM 42.4158 -82.9086 242° Southwest 260 299 7,100 -873 Level Cleveland Center
Tue 07:08:15 AM 42.4083 -82.9944 263° West 265 305 6,300 -871 Descending Cleveland Center
Tue 07:08:29 AM 42.4067 -83.0036 256° West 256 295 6,200 -295 Descending Cleveland Center
Tue 07:09:16 AM 42.3972 -83.0861 261° West 230 265 6,000 -197 Descending Cleveland Center
Tue 07:09:30 AM 42.3958 -83.0958 259° West 252 290 6,000 -1,263 Level Cleveland Center
Tue 07:10:32 AM 42.3797 -83.1769 255° West 235 270 4,400 -976 Descending Cleveland Center
Tue 07:11:33 AM 42.3494 -83.2372 236° Southwest 203 234 4,000 -850 Descending Cleveland Center
Tue 07:12:25 AM 42.3014 -83.2733 209° Southwest 187 215 2,800 -1,161 Descending Cleveland Center
Tue 07:12:35 AM 42.3039 -83.2697 47° Northeast 190 219 2,800 -1,082 Level Cleveland Center
Tue 07:13:26 AM 42.2636 -83.3019 211° Southwest 132 152 1,700 -1,180 Descending Cleveland Center
Tue 07:13:36 AM 42.2589 -83.3036 195° South 163 188 1,600 -627 Descending Cleveland Center
Tue 07:14:33 AM 42.2281 -83.3278 210° Southwest 125 144 1,000 -677 Descending Cleveland Center
Tue 07:14:38 AM 42.2272 -83.3269 143° Southeast 143 165 900 -182 Descending Cleveland Center
Tue 07:15:39 AM 42.1958 -83.3494 208° Southwest 140 161 800 -98 Descending Cleveland Center
Tue 07:17:00 AM 42.2000 -83.3500 236° Southwest  Level FlightAware Approximate
Tue 07:24:00 AM 42.2124 -83.3534 236° Southwest  Level Estimated

Login

Don't have an account? Register now (free) for customized features, flight alerts, and more!